Barnham, United Kingdom
Current Conditions -  °F | °C
As of 6:50 PM on Saturday 25 Oct 2014 (Local Time) from EGKA Reporting Station
Scattered Clouds Scattered Clouds  
Wind Chill: 55°   Ceiling: Unl
Heat Index: 55°   Visibility: 6mi
Dew Point: 48°   Wind: 9mph
Humidity: 77%   Direction: 260°W
Pressure: 30.15"   Gusts: NA
Location:  50.83°N, 0.64°W
Report Text: EGKA 251750Z 26008KT 9999 SCT035 13/09 Q1021
Loading
Personal Weather Stations






























Interactive Weather Map New forecast layout! Learn more

10-Day Weather Forecast

Advertisements
Track Severe Weather on mobile